createdAt,value
2022-10-02T00:02:25.210Z,46.26
2022-10-02T00:07:32.457Z,46.27
2022-10-02T00:12:39.621Z,46.33
2022-10-02T00:17:46.809Z,46.35
2022-10-02T00:22:54.053Z,46.16
2022-10-02T00:28:01.254Z,46.19
2022-10-02T00:33:08.423Z,46.06
2022-10-02T00:38:15.649Z,46.20
2022-10-02T00:43:22.837Z,46.29
2022-10-02T00:48:30.010Z,46.30
2022-10-02T00:53:37.287Z,46.30
2022-10-02T00:58:44.462Z,46.26
2022-10-02T01:03:51.655Z,46.20
2022-10-02T01:08:58.913Z,46.38
2022-10-02T01:14:06.067Z,46.46
2022-10-02T01:19:13.265Z,46.40
2022-10-02T01:24:20.493Z,46.52
2022-10-02T01:29:27.692Z,46.67
2022-10-02T01:34:34.902Z,46.63
2022-10-02T01:39:42.209Z,46.65
2022-10-02T01:44:49.347Z,46.65
2022-10-02T01:49:56.596Z,46.82
2022-10-02T01:55:03.843Z,46.94
2022-10-02T02:00:11.015Z,47.04
2022-10-02T02:05:18.303Z,47.36
2022-10-02T02:10:25.536Z,47.22
2022-10-02T02:15:32.758Z,46.99
2022-10-02T02:20:39.932Z,47.19
2022-10-02T02:25:47.186Z,47.65
2022-10-02T02:30:54.347Z,47.53
2022-10-02T02:36:01.530Z,47.49
2022-10-02T02:41:08.783Z,47.88
2022-10-02T02:46:16.020Z,47.89
2022-10-02T02:51:23.211Z,47.49
2022-10-02T02:56:30.492Z,47.59
2022-10-02T03:01:37.672Z,47.23
2022-10-02T03:06:44.893Z,47.30
2022-10-02T03:11:52.129Z,47.30
2022-10-02T03:16:59.280Z,47.33
2022-10-02T03:22:06.666Z,47.40
2022-10-02T03:27:14.022Z,47.48
2022-10-02T03:32:21.298Z,47.48
2022-10-02T03:37:28.529Z,47.46
2022-10-02T03:42:35.766Z,47.49
2022-10-02T03:47:42.879Z,48.64
2022-10-02T03:52:50.092Z,47.92
2022-10-02T03:57:57.366Z,47.44
2022-10-02T04:03:04.561Z,47.57
2022-10-02T04:08:11.775Z,47.81
2022-10-02T04:13:18.984Z,48.05
2022-10-02T04:18:26.255Z,47.81
2022-10-02T04:23:33.469Z,47.87
2022-10-02T04:28:40.694Z,47.89
2022-10-02T04:33:47.869Z,47.97
2022-10-02T04:38:55.083Z,47.94
2022-10-02T04:44:02.266Z,48.13
2022-10-02T04:49:09.491Z,48.80
2022-10-02T04:54:16.684Z,48.41
2022-10-02T04:59:24.029Z,48.46
2022-10-02T05:04:31.257Z,47.92
2022-10-02T05:09:38.499Z,48.04
2022-10-02T05:14:45.737Z,48.07
2022-10-02T05:19:52.913Z,48.33
2022-10-02T05:25:00.132Z,48.08
2022-10-02T05:30:07.351Z,48.13
2022-10-02T05:35:14.544Z,48.09
2022-10-02T05:40:21.713Z,48.90
2022-10-02T05:45:28.977Z,48.63
2022-10-02T05:50:36.180Z,48.28
2022-10-02T05:55:43.392Z,48.22
2022-10-02T06:00:50.761Z,48.00
2022-10-02T06:05:57.778Z,48.06
2022-10-02T06:11:04.984Z,48.01
2022-10-02T06:16:12.343Z,47.80
2022-10-02T06:21:19.536Z,47.87
2022-10-02T06:26:26.732Z,47.71
2022-10-02T06:31:34.117Z,47.82
2022-10-02T06:36:41.302Z,47.84
2022-10-02T06:41:48.531Z,47.80
2022-10-02T06:46:55.778Z,48.24
2022-10-02T06:52:02.999Z,48.31
2022-10-02T06:57:10.226Z,48.52
2022-10-02T07:02:17.487Z,48.23
2022-10-02T07:07:24.581Z,48.26
2022-10-02T07:12:31.848Z,48.28
2022-10-02T07:17:39.105Z,48.22
2022-10-02T07:22:46.431Z,48.21
2022-10-02T07:27:53.675Z,48.21
2022-10-02T07:33:00.925Z,48.16
2022-10-02T07:38:08.101Z,48.19
2022-10-02T07:43:15.796Z,48.16
2022-10-02T07:48:23.117Z,48.07
2022-10-02T07:53:30.310Z,48.05
2022-10-02T07:58:37.549Z,48.20
2022-10-02T08:03:44.841Z,48.25
2022-10-02T08:08:52.033Z,48.16
2022-10-02T08:13:59.206Z,48.14
2022-10-02T08:19:06.443Z,48.13
2022-10-02T08:24:13.616Z,48.04
2022-10-02T08:29:20.841Z,48.16
2022-10-02T08:34:28.052Z,48.04
2022-10-02T08:39:35.230Z,48.13
2022-10-02T08:44:42.541Z,48.13
2022-10-02T08:49:49.777Z,48.34
2022-10-02T08:54:57.004Z,48.58
2022-10-02T09:00:04.193Z,48.97
2022-10-02T09:05:11.388Z,48.73
2022-10-02T09:10:18.551Z,48.44
2022-10-02T09:15:25.767Z,48.23
2022-10-02T09:20:33.002Z,48.36
2022-10-02T09:25:40.121Z,49.23
2022-10-02T09:30:47.372Z,49.43
2022-10-02T09:35:54.610Z,49.40
2022-10-02T09:41:01.834Z,49.58
2022-10-02T09:46:09.124Z,49.19
2022-10-02T09:51:16.321Z,49.04
2022-10-02T09:56:23.521Z,48.89
2022-10-02T10:01:30.775Z,48.76
2022-10-02T10:06:38.736Z,48.45
2022-10-02T10:11:45.420Z,48.36
2022-10-02T10:16:52.720Z,48.15
2022-10-02T10:22:00.027Z,48.20
2022-10-02T10:27:08.203Z,48.15
2022-10-02T10:32:14.625Z,48.13
2022-10-02T10:37:21.877Z,48.15
2022-10-02T10:42:29.133Z,48.18
2022-10-02T10:47:36.284Z,47.97
2022-10-02T10:52:43.558Z,47.94
2022-10-02T10:57:50.755Z,47.87
2022-10-02T11:02:58.211Z,47.89
2022-10-02T11:08:05.437Z,47.94
2022-10-02T11:13:12.644Z,47.89
2022-10-02T11:18:19.865Z,47.95
2022-10-02T11:23:27.191Z,48.00
2022-10-02T11:28:34.432Z,48.06
2022-10-02T11:33:42.140Z,48.02
2022-10-02T11:38:49.535Z,48.05
2022-10-02T11:43:56.643Z,48.11
2022-10-02T11:49:03.918Z,48.71
2022-10-02T11:54:11.194Z,49.02
2022-10-02T11:59:18.395Z,49.23
2022-10-02T12:04:25.580Z,50.03
2022-10-02T12:09:32.819Z,49.22
2022-10-02T12:14:40.070Z,49.32
2022-10-02T12:19:47.297Z,49.09
2022-10-02T12:24:55.045Z,48.94
2022-10-02T12:30:01.768Z,48.99
2022-10-02T12:35:09.057Z,48.77
2022-10-02T12:40:16.369Z,48.80
2022-10-02T12:45:23.576Z,48.77
2022-10-02T12:50:31.086Z,48.79
2022-10-02T12:55:38.302Z,48.88
2022-10-02T13:00:45.513Z,48.90
2022-10-02T13:05:52.638Z,48.89
2022-10-02T13:11:00.151Z,48.87
2022-10-02T13:16:07.399Z,48.86
2022-10-02T13:21:14.568Z,48.78
2022-10-02T13:26:21.745Z,48.74
2022-10-02T13:31:29.027Z,48.77
2022-10-02T13:36:36.186Z,50.40
2022-10-02T13:41:43.412Z,50.84
2022-10-02T13:46:50.644Z,51.55
2022-10-02T13:51:57.900Z,51.87
2022-10-02T13:57:05.122Z,51.98
2022-10-02T14:02:13.754Z,52.64
2022-10-02T14:07:20.976Z,51.89
2022-10-02T14:12:28.798Z,51.91
2022-10-02T14:17:36.057Z,51.66
2022-10-02T14:22:43.348Z,51.67
2022-10-02T14:27:50.688Z,51.61
2022-10-02T14:32:57.872Z,51.35
2022-10-02T14:38:05.148Z,51.42
2022-10-02T14:43:12.389Z,51.69
2022-10-02T14:48:19.663Z,51.74
2022-10-02T14:53:26.890Z,51.51
2022-10-02T14:58:34.163Z,51.66
2022-10-02T15:03:41.337Z,51.60
2022-10-02T15:08:48.518Z,51.74
2022-10-02T15:13:55.746Z,51.72
2022-10-02T15:19:02.956Z,52.40
2022-10-02T15:24:10.165Z,52.86
2022-10-02T15:29:17.439Z,52.84
2022-10-02T15:34:24.680Z,52.73
2022-10-02T15:39:31.887Z,52.86
2022-10-02T15:44:39.084Z,52.96
2022-10-02T15:49:46.263Z,52.80
2022-10-02T15:54:53.488Z,52.93
2022-10-02T16:00:00.806Z,52.64
2022-10-02T16:05:07.899Z,52.90
2022-10-02T16:10:15.107Z,52.96
2022-10-02T16:15:22.454Z,52.92
2022-10-02T16:20:29.625Z,53.11
2022-10-02T16:25:36.892Z,53.26
2022-10-02T16:30:44.132Z,53.28
2022-10-02T16:35:51.322Z,53.22
2022-10-02T16:40:58.506Z,52.92
2022-10-02T16:46:05.807Z,53.15
2022-10-02T16:51:13.043Z,53.04
2022-10-02T16:56:20.290Z,52.64
2022-10-02T17:01:27.639Z,52.53
2022-10-02T17:06:35.581Z,53.66
2022-10-02T17:11:42.547Z,54.53
2022-10-02T17:16:49.983Z,53.00
2022-10-02T17:21:57.086Z,53.04
2022-10-02T17:27:04.298Z,52.67
2022-10-02T17:32:11.535Z,52.41
2022-10-02T17:37:19.711Z,52.22
2022-10-02T17:42:27.011Z,52.02
2022-10-02T17:47:34.249Z,51.87
2022-10-02T17:52:41.488Z,51.44
2022-10-02T17:57:48.665Z,51.29
2022-10-02T18:02:55.904Z,51.35
2022-10-02T18:08:03.092Z,51.27
2022-10-02T18:13:10.293Z,51.16
2022-10-02T18:18:17.474Z,51.13
2022-10-02T18:23:24.638Z,51.08
2022-10-02T18:28:31.958Z,51.03
2022-10-02T18:33:39.411Z,50.90
2022-10-02T18:38:46.727Z,51.11
2022-10-02T18:43:53.996Z,50.72
2022-10-02T18:49:01.742Z,50.38
2022-10-02T18:54:09.032Z,50.06
2022-10-02T18:59:16.248Z,51.23
2022-10-02T19:04:23.772Z,50.53
2022-10-02T19:09:31.045Z,50.19
2022-10-02T19:14:38.343Z,50.93
2022-10-02T19:19:45.633Z,50.20
2022-10-02T19:24:52.925Z,49.93
2022-10-02T19:30:00.183Z,49.29
2022-10-02T19:35:10.907Z,49.35
2022-10-02T19:40:18.203Z,48.84
2022-10-02T19:45:25.688Z,48.29
2022-10-02T19:50:32.705Z,48.50
2022-10-02T19:55:39.851Z,48.70
2022-10-02T20:00:47.251Z,48.40
2022-10-02T20:05:54.623Z,47.97
2022-10-02T20:11:01.872Z,48.06
2022-10-02T20:16:09.456Z,47.97
2022-10-02T20:21:16.637Z,48.04
2022-10-02T20:26:23.746Z,47.71
2022-10-02T20:31:31.020Z,48.00
2022-10-02T20:36:38.143Z,47.60
2022-10-02T20:41:45.329Z,47.78
2022-10-02T20:46:52.619Z,48.25
2022-10-02T20:51:59.819Z,48.40
2022-10-02T20:57:10.301Z,48.34
2022-10-02T21:02:14.314Z,48.58
2022-10-02T21:07:21.583Z,48.63
2022-10-02T21:12:28.790Z,48.68
2022-10-02T21:17:35.959Z,48.90
2022-10-02T21:22:43.246Z,49.21
2022-10-02T21:27:50.696Z,49.19
2022-10-02T21:32:57.972Z,49.39
2022-10-02T21:38:05.144Z,49.32
2022-10-02T21:43:12.360Z,49.43
2022-10-02T21:48:19.714Z,49.30
2022-10-02T21:53:26.980Z,49.18
2022-10-02T21:58:37.309Z,49.55
2022-10-02T22:03:44.714Z,49.27
2022-10-02T22:08:52.308Z,49.15
2022-10-02T22:13:59.558Z,48.97
2022-10-02T22:19:06.746Z,48.81
2022-10-02T22:24:13.941Z,48.55
2022-10-02T22:29:21.125Z,49.48
2022-10-02T22:34:28.357Z,50.45
2022-10-02T22:39:35.668Z,50.46
2022-10-02T22:44:42.801Z,50.05
2022-10-02T22:49:50.034Z,49.87
2022-10-02T22:54:57.327Z,49.54
2022-10-02T23:00:04.459Z,49.22
2022-10-02T23:05:11.665Z,49.03
2022-10-02T23:10:18.891Z,48.75
2022-10-02T23:15:26.052Z,48.60
2022-10-02T23:20:33.290Z,48.45
2022-10-02T23:25:40.515Z,48.35
2022-10-02T23:30:47.741Z,48.31
2022-10-02T23:35:54.910Z,48.30
2022-10-02T23:41:02.247Z,48.36
2022-10-02T23:46:09.510Z,48.41
2022-10-02T23:51:16.673Z,48.81
2022-10-02T23:56:23.911Z,49.13
